sensor_id;sensor_type;location;lat;lon;timestamp;P1;durP1;ratioP1;P2;durP2;ratioP2
44165;SDS011;30476;53.468;9.826;2023-11-21T00:01:02;6.70;;;2.90;;
44165;SDS011;30476;53.468;9.826;2023-11-21T00:03:30;7.70;;;3.30;;
44165;SDS011;30476;53.468;9.826;2023-11-21T00:05:56;3.23;;;2.93;;
44165;SDS011;30476;53.468;9.826;2023-11-21T00:08:21;3.00;;;2.80;;
44165;SDS011;30476;53.468;9.826;2023-11-21T00:10:47;4.07;;;2.77;;
44165;SDS011;30476;53.468;9.826;2023-11-21T00:13:13;4.30;;;3.83;;
44165;SDS011;30476;53.468;9.826;2023-11-21T00:15:39;3.20;;;2.90;;
44165;SDS011;30476;53.468;9.826;2023-11-21T00:18:06;5.83;;;3.40;;
44165;SDS011;30476;53.468;9.826;2023-11-21T00:20:31;6.57;;;3.67;;
44165;SDS011;30476;53.468;9.826;2023-11-21T00:22:57;7.10;;;4.47;;
44165;SDS011;30476;53.468;9.826;2023-11-21T00:25:24;4.20;;;3.40;;
44165;SDS011;30476;53.468;9.826;2023-11-21T00:27:50;3.70;;;3.47;;
44165;SDS011;30476;53.468;9.826;2023-11-21T00:30:16;4.63;;;3.70;;
44165;SDS011;30476;53.468;9.826;2023-11-21T00:32:42;7.47;;;4.63;;
44165;SDS011;30476;53.468;9.826;2023-11-21T00:35:08;6.90;;;3.20;;
44165;SDS011;30476;53.468;9.826;2023-11-21T00:37:34;4.23;;;3.57;;
44165;SDS011;30476;53.468;9.826;2023-11-21T00:40:00;6.73;;;5.20;;
44165;SDS011;30476;53.468;9.826;2023-11-21T00:42:30;6.27;;;4.13;;
44165;SDS011;30476;53.468;9.826;2023-11-21T00:44:57;7.83;;;3.77;;
44165;SDS011;30476;53.468;9.826;2023-11-21T00:47:22;4.40;;;4.00;;
44165;SDS011;30476;53.468;9.826;2023-11-21T00:49:48;4.13;;;3.73;;
44165;SDS011;30476;53.468;9.826;2023-11-21T00:52:14;4.73;;;4.30;;
44165;SDS011;30476;53.468;9.826;2023-11-21T00:54:41;9.53;;;4.80;;
44165;SDS011;30476;53.468;9.826;2023-11-21T00:57:07;7.57;;;4.80;;
44165;SDS011;30476;53.468;9.826;2023-11-21T00:59:33;4.80;;;4.40;;
44165;SDS011;30476;53.468;9.826;2023-11-21T01:02:00;5.33;;;4.83;;
44165;SDS011;30476;53.468;9.826;2023-11-21T01:04:26;3.80;;;3.50;;
44165;SDS011;30476;53.468;9.826;2023-11-21T01:06:52;6.10;;;4.30;;
44165;SDS011;30476;53.468;9.826;2023-11-21T01:09:18;3.53;;;3.23;;
44165;SDS011;30476;53.468;9.826;2023-11-21T01:11:44;2.70;;;2.50;;
44165;SDS011;30476;53.468;9.826;2023-11-21T01:14:10;4.03;;;3.47;;
44165;SDS011;30476;53.468;9.826;2023-11-21T01:16:36;4.07;;;3.77;;
44165;SDS011;30476;53.468;9.826;2023-11-21T01:19:02;6.53;;;2.90;;
44165;SDS011;30476;53.468;9.826;2023-11-21T01:21:27;2.90;;;2.70;;
44165;SDS011;30476;53.468;9.826;2023-11-21T01:23:54;3.87;;;2.53;;
44165;SDS011;30476;53.468;9.826;2023-11-21T01:26:20;2.93;;;2.70;;
44165;SDS011;30476;53.468;9.826;2023-11-21T01:28:46;2.83;;;2.50;;
44165;SDS011;30476;53.468;9.826;2023-11-21T01:31:14;4.27;;;2.40;;
44165;SDS011;30476;53.468;9.826;2023-11-21T01:33:40;3.13;;;2.60;;
44165;SDS011;30476;53.468;9.826;2023-11-21T01:36:06;5.20;;;3.27;;
44165;SDS011;30476;53.468;9.826;2023-11-21T01:38:32;4.20;;;3.63;;
44165;SDS011;30476;53.468;9.826;2023-11-21T01:40:58;3.10;;;2.90;;
44165;SDS011;30476;53.468;9.826;2023-11-21T01:43:26;3.67;;;3.37;;
44165;SDS011;30476;53.468;9.826;2023-11-21T01:45:54;3.80;;;2.90;;
44165;SDS011;30476;53.468;9.826;2023-11-21T01:48:22;5.63;;;4.43;;
44165;SDS011;30476;53.468;9.826;2023-11-21T01:50:48;5.30;;;4.80;;
44165;SDS011;30476;53.468;9.826;2023-11-21T01:53:14;4.40;;;4.00;;
44165;SDS011;30476;53.468;9.826;2023-11-21T01:55:40;6.53;;;5.33;;
44165;SDS011;30476;53.468;9.826;2023-11-21T01:58:07;7.50;;;4.47;;
44165;SDS011;30476;53.468;9.826;2023-11-21T02:00:34;9.80;;;5.20;;
44165;SDS011;30476;53.468;9.826;2023-11-21T02:03:00;4.40;;;4.00;;
44165;SDS011;30476;53.468;9.826;2023-11-21T02:05:26;5.37;;;4.87;;
44165;SDS011;30476;53.468;9.826;2023-11-21T02:07:52;4.30;;;4.00;;
44165;SDS011;30476;53.468;9.826;2023-11-21T02:10:18;4.93;;;4.53;;
44165;SDS011;30476;53.468;9.826;2023-11-21T02:12:48;6.60;;;4.37;;
44165;SDS011;30476;53.468;9.826;2023-11-21T02:15:15;7.57;;;5.40;;
44165;SDS011;30476;53.468;9.826;2023-11-21T02:17:49;3.10;;;2.90;;
44165;SDS011;30476;53.468;9.826;2023-11-21T02:20:16;6.73;;;4.13;;
44165;SDS011;30476;53.468;9.826;2023-11-21T02:23:04;5.80;;;3.93;;
44165;SDS011;30476;53.468;9.826;2023-11-21T02:25:30;3.80;;;3.50;;
44165;SDS011;30476;53.468;9.826;2023-11-21T02:27:58;6.20;;;3.23;;
44165;SDS011;30476;53.468;9.826;2023-11-21T02:30:25;3.50;;;3.20;;
44165;SDS011;30476;53.468;9.826;2023-11-21T02:32:52;2.57;;;2.37;;
44165;SDS011;30476;53.468;9.826;2023-11-21T02:35:19;4.50;;;3.00;;
44165;SDS011;30476;53.468;9.826;2023-11-21T02:37:49;2.43;;;2.23;;
44165;SDS011;30476;53.468;9.826;2023-11-21T02:40:15;4.60;;;2.60;;
44165;SDS011;30476;53.468;9.826;2023-11-21T02:42:48;2.73;;;2.40;;
44165;SDS011;30476;53.468;9.826;2023-11-21T02:45:16;2.83;;;2.27;;
44165;SDS011;30476;53.468;9.826;2023-11-21T02:47:44;2.37;;;2.17;;
44165;SDS011;30476;53.468;9.826;2023-11-21T02:50:10;3.17;;;2.97;;
44165;SDS011;30476;53.468;9.826;2023-11-21T02:52:36;4.17;;;2.93;;
44165;SDS011;30476;53.468;9.826;2023-11-21T02:55:03;2.43;;;2.23;;
44165;SDS011;30476;53.468;9.826;2023-11-21T02:57:29;2.33;;;2.13;;
44165;SDS011;30476;53.468;9.826;2023-11-21T02:59:55;2.60;;;2.50;;
44165;SDS011;30476;53.468;9.826;2023-11-21T03:02:21;2.73;;;2.07;;
44165;SDS011;30476;53.468;9.826;2023-11-21T03:04:47;1.83;;;1.73;;
44165;SDS011;30476;53.468;9.826;2023-11-21T03:07:14;2.30;;;2.10;;
44165;SDS011;30476;53.468;9.826;2023-11-21T03:09:41;2.70;;;2.47;;
44165;SDS011;30476;53.468;9.826;2023-11-21T03:12:06;5.90;;;2.33;;
44165;SDS011;30476;53.468;9.826;2023-11-21T03:14:34;3.17;;;2.10;;
44165;SDS011;30476;53.468;9.826;2023-11-21T03:16:59;1.80;;;1.70;;
44165;SDS011;30476;53.468;9.826;2023-11-21T03:19:25;2.40;;;2.30;;
44165;SDS011;30476;53.468;9.826;2023-11-21T03:21:51;3.17;;;2.43;;
44165;SDS011;30476;53.468;9.826;2023-11-21T03:24:18;3.87;;;1.73;;
44165;SDS011;30476;53.468;9.826;2023-11-21T03:26:45;3.50;;;2.40;;
44165;SDS011;30476;53.468;9.826;2023-11-21T03:29:11;2.20;;;2.00;;
44165;SDS011;30476;53.468;9.826;2023-11-21T03:31:37;2.20;;;1.93;;
44165;SDS011;30476;53.468;9.826;2023-11-21T03:34:03;1.73;;;1.63;;
44165;SDS011;30476;53.468;9.826;2023-11-21T03:36:29;1.83;;;1.57;;
44165;SDS011;30476;53.468;9.826;2023-11-21T03:38:55;1.90;;;1.80;;
44165;SDS011;30476;53.468;9.826;2023-11-21T03:41:21;2.63;;;2.30;;
44165;SDS011;30476;53.468;9.826;2023-11-21T03:43:46;2.47;;;1.87;;
44165;SDS011;30476;53.468;9.826;2023-11-21T03:46:12;1.90;;;1.80;;
44165;SDS011;30476;53.468;9.826;2023-11-21T03:48:38;3.43;;;2.20;;
44165;SDS011;30476;53.468;9.826;2023-11-21T03:51:04;2.47;;;2.03;;
44165;SDS011;30476;53.468;9.826;2023-11-21T03:53:30;3.33;;;2.00;;
44165;SDS011;30476;53.468;9.826;2023-11-21T03:55:57;2.50;;;2.30;;
44165;SDS011;30476;53.468;9.826;2023-11-21T03:58:23;3.03;;;2.70;;
44165;SDS011;30476;53.468;9.826;2023-11-21T04:00:48;5.53;;;2.53;;
44165;SDS011;30476;53.468;9.826;2023-11-21T04:03:14;3.40;;;2.50;;
44165;SDS011;30476;53.468;9.826;2023-11-21T04:05:40;2.47;;;2.23;;
44165;SDS011;30476;53.468;9.826;2023-11-21T04:08:06;4.10;;;2.47;;
44165;SDS011;30476;53.468;9.826;2023-11-21T04:10:32;3.13;;;1.93;;
44165;SDS011;30476;53.468;9.826;2023-11-21T04:12:58;1.97;;;1.87;;
44165;SDS011;30476;53.468;9.826;2023-11-21T04:15:25;1.60;;;1.50;;
44165;SDS011;30476;53.468;9.826;2023-11-21T04:17:51;6.50;;;2.90;;
44165;SDS011;30476;53.468;9.826;2023-11-21T04:20:17;3.57;;;2.60;;
44165;SDS011;30476;53.468;9.826;2023-11-21T04:22:44;3.27;;;2.97;;
44165;SDS011;30476;53.468;9.826;2023-11-21T04:25:10;4.63;;;4.30;;
44165;SDS011;30476;53.468;9.826;2023-11-21T04:27:38;4.70;;;3.03;;
44165;SDS011;30476;53.468;9.826;2023-11-21T04:30:05;3.20;;;2.93;;
44165;SDS011;30476;53.468;9.826;2023-11-21T04:32:31;2.53;;;2.33;;
44165;SDS011;30476;53.468;9.826;2023-11-21T04:34:57;7.23;;;3.73;;
44165;SDS011;30476;53.468;9.826;2023-11-21T04:37:23;3.23;;;3.00;;
44165;SDS011;30476;53.468;9.826;2023-11-21T04:39:49;11.47;;;4.03;;
44165;SDS011;30476;53.468;9.826;2023-11-21T04:42:15;3.70;;;3.33;;
44165;SDS011;30476;53.468;9.826;2023-11-21T04:44:41;7.33;;;3.10;;
44165;SDS011;30476;53.468;9.826;2023-11-21T04:47:07;6.70;;;3.70;;
44165;SDS011;30476;53.468;9.826;2023-11-21T04:49:33;3.07;;;2.87;;
44165;SDS011;30476;53.468;9.826;2023-11-21T04:51:59;7.80;;;3.43;;
44165;SDS011;30476;53.468;9.826;2023-11-21T04:54:25;2.50;;;2.30;;
44165;SDS011;30476;53.468;9.826;2023-11-21T04:56:51;2.50;;;2.27;;
44165;SDS011;30476;53.468;9.826;2023-11-21T04:59:16;4.93;;;4.33;;
44165;SDS011;30476;53.468;9.826;2023-11-21T05:01:42;3.67;;;3.10;;
44165;SDS011;30476;53.468;9.826;2023-11-21T05:04:08;3.33;;;3.00;;
44165;SDS011;30476;53.468;9.826;2023-11-21T05:06:34;5.43;;;3.70;;
44165;SDS011;30476;53.468;9.826;2023-11-21T05:09:00;5.27;;;3.50;;
44165;SDS011;30476;53.468;9.826;2023-11-21T05:11:26;2.57;;;2.37;;
44165;SDS011;30476;53.468;9.826;2023-11-21T05:13:52;3.10;;;2.80;;
44165;SDS011;30476;53.468;9.826;2023-11-21T05:16:21;2.77;;;2.57;;
44165;SDS011;30476;53.468;9.826;2023-11-21T05:18:47;6.20;;;3.60;;
44165;SDS011;30476;53.468;9.826;2023-11-21T05:21:15;4.57;;;3.40;;
44165;SDS011;30476;53.468;9.826;2023-11-21T05:23:41;7.40;;;3.20;;
44165;SDS011;30476;53.468;9.826;2023-11-21T05:26:07;5.30;;;3.40;;
44165;SDS011;30476;53.468;9.826;2023-11-21T05:28:33;2.83;;;2.60;;
44165;SDS011;30476;53.468;9.826;2023-11-21T05:30:58;4.87;;;2.80;;
44165;SDS011;30476;53.468;9.826;2023-11-21T05:33:24;4.97;;;3.30;;
44165;SDS011;30476;53.468;9.826;2023-11-21T05:35:50;1.90;;;1.80;;
44165;SDS011;30476;53.468;9.826;2023-11-21T05:38:16;5.20;;;3.87;;
44165;SDS011;30476;53.468;9.826;2023-11-21T05:40:42;2.90;;;2.70;;
44165;SDS011;30476;53.468;9.826;2023-11-21T05:43:09;10.30;;;3.67;;
44165;SDS011;30476;53.468;9.826;2023-11-21T05:45:35;2.97;;;2.77;;
44165;SDS011;30476;53.468;9.826;2023-11-21T05:48:00;4.07;;;2.97;;
44165;SDS011;30476;53.468;9.826;2023-11-21T05:50:26;2.80;;;2.27;;
44165;SDS011;30476;53.468;9.826;2023-11-21T05:52:52;3.00;;;2.80;;
44165;SDS011;30476;53.468;9.826;2023-11-21T05:55:17;3.70;;;2.63;;
44165;SDS011;30476;53.468;9.826;2023-11-21T05:57:46;2.77;;;2.67;;
44165;SDS011;30476;53.468;9.826;2023-11-21T06:00:12;3.97;;;3.53;;
44165;SDS011;30476;53.468;9.826;2023-11-21T06:02:45;2.40;;;2.20;;
44165;SDS011;30476;53.468;9.826;2023-11-21T06:05:12;5.13;;;4.03;;
44165;SDS011;30476;53.468;9.826;2023-11-21T06:07:38;3.20;;;2.70;;
44165;SDS011;30476;53.468;9.826;2023-11-21T06:10:05;5.47;;;2.40;;
44165;SDS011;30476;53.468;9.826;2023-11-21T06:12:35;4.67;;;3.60;;
44165;SDS011;30476;53.468;9.826;2023-11-21T06:15:04;3.67;;;2.70;;
44165;SDS011;30476;53.468;9.826;2023-11-21T06:17:32;5.73;;;3.43;;
44165;SDS011;30476;53.468;9.826;2023-11-21T06:19:58;3.60;;;3.33;;
44165;SDS011;30476;53.468;9.826;2023-11-21T06:22:26;2.90;;;2.70;;
44165;SDS011;30476;53.468;9.826;2023-11-21T06:24:51;4.30;;;2.97;;
44165;SDS011;30476;53.468;9.826;2023-11-21T06:27:17;3.37;;;3.10;;
44165;SDS011;30476;53.468;9.826;2023-11-21T06:29:43;3.37;;;3.17;;
44165;SDS011;30476;53.468;9.826;2023-11-21T06:32:09;3.20;;;2.87;;
44165;SDS011;30476;53.468;9.826;2023-11-21T06:34:34;3.87;;;3.57;;
44165;SDS011;30476;53.468;9.826;2023-11-21T06:37:00;3.53;;;3.23;;
44165;SDS011;30476;53.468;9.826;2023-11-21T06:39:26;6.47;;;3.90;;
44165;SDS011;30476;53.468;9.826;2023-11-21T06:41:52;4.37;;;4.17;;
44165;SDS011;30476;53.468;9.826;2023-11-21T06:44:18;4.47;;;3.60;;
44165;SDS011;30476;53.468;9.826;2023-11-21T06:46:45;4.40;;;3.97;;
44165;SDS011;30476;53.468;9.826;2023-11-21T06:49:10;4.37;;;3.97;;
44165;SDS011;30476;53.468;9.826;2023-11-21T06:51:37;3.83;;;3.10;;
44165;SDS011;30476;53.468;9.826;2023-11-21T06:54:02;6.73;;;4.10;;
44165;SDS011;30476;53.468;9.826;2023-11-21T06:56:28;3.60;;;3.40;;
44165;SDS011;30476;53.468;9.826;2023-11-21T06:58:54;6.20;;;3.47;;
44165;SDS011;30476;53.468;9.826;2023-11-21T07:01:20;5.90;;;3.93;;
44165;SDS011;30476;53.468;9.826;2023-11-21T07:03:45;10.80;;;4.07;;
44165;SDS011;30476;53.468;9.826;2023-11-21T07:06:11;5.70;;;4.07;;
44165;SDS011;30476;53.468;9.826;2023-11-21T07:08:37;2.47;;;2.37;;
44165;SDS011;30476;53.468;9.826;2023-11-21T07:11:03;3.13;;;2.93;;
44165;SDS011;30476;53.468;9.826;2023-11-21T07:13:30;3.20;;;3.00;;
44165;SDS011;30476;53.468;9.826;2023-11-21T07:15:57;3.63;;;3.20;;
44165;SDS011;30476;53.468;9.826;2023-11-21T07:18:24;3.70;;;2.63;;
44165;SDS011;30476;53.468;9.826;2023-11-21T07:20:49;5.27;;;4.33;;
44165;SDS011;30476;53.468;9.826;2023-11-21T07:23:15;4.40;;;3.90;;
44165;SDS011;30476;53.468;9.826;2023-11-21T07:25:41;5.07;;;4.57;;
44165;SDS011;30476;53.468;9.826;2023-11-21T07:28:08;3.60;;;3.10;;
44165;SDS011;30476;53.468;9.826;2023-11-21T07:30:34;3.10;;;2.90;;
44165;SDS011;30476;53.468;9.826;2023-11-21T07:33:00;4.73;;;4.07;;
44165;SDS011;30476;53.468;9.826;2023-11-21T07:35:26;4.17;;;3.80;;
44165;SDS011;30476;53.468;9.826;2023-11-21T07:37:52;3.53;;;3.20;;
44165;SDS011;30476;53.468;9.826;2023-11-21T07:40:17;4.03;;;3.73;;
44165;SDS011;30476;53.468;9.826;2023-11-21T07:42:43;3.37;;;3.07;;
44165;SDS011;30476;53.468;9.826;2023-11-21T07:45:09;4.63;;;3.93;;
44165;SDS011;30476;53.468;9.826;2023-11-21T07:47:35;4.73;;;3.23;;
44165;SDS011;30476;53.468;9.826;2023-11-21T07:50:04;5.77;;;4.00;;
44165;SDS011;30476;53.468;9.826;2023-11-21T07:52:30;4.30;;;4.00;;
44165;SDS011;30476;53.468;9.826;2023-11-21T07:54:56;3.67;;;3.30;;
44165;SDS011;30476;53.468;9.826;2023-11-21T07:57:22;7.13;;;4.27;;
44165;SDS011;30476;53.468;9.826;2023-11-21T07:59:47;4.87;;;3.37;;
44165;SDS011;30476;53.468;9.826;2023-11-21T08:02:13;3.30;;;2.97;;
44165;SDS011;30476;53.468;9.826;2023-11-21T08:04:41;3.70;;;3.40;;
44165;SDS011;30476;53.468;9.826;2023-11-21T08:07:07;3.70;;;3.40;;
44165;SDS011;30476;53.468;9.826;2023-11-21T08:09:32;7.50;;;4.83;;
44165;SDS011;30476;53.468;9.826;2023-11-21T08:11:59;5.63;;;3.83;;
44165;SDS011;30476;53.468;9.826;2023-11-21T08:14:27;7.10;;;5.10;;
44165;SDS011;30476;53.468;9.826;2023-11-21T08:16:53;4.43;;;3.90;;
44165;SDS011;30476;53.468;9.826;2023-11-21T08:19:23;4.10;;;3.80;;
44165;SDS011;30476;53.468;9.826;2023-11-21T08:21:50;4.17;;;3.87;;
44165;SDS011;30476;53.468;9.826;2023-11-21T08:24:20;4.60;;;4.07;;
44165;SDS011;30476;53.468;9.826;2023-11-21T08:26:46;4.43;;;4.10;;
44165;SDS011;30476;53.468;9.826;2023-11-21T08:29:12;2.30;;;2.20;;
44165;SDS011;30476;53.468;9.826;2023-11-21T08:31:38;5.07;;;4.70;;
44165;SDS011;30476;53.468;9.826;2023-11-21T08:34:04;4.33;;;3.70;;
44165;SDS011;30476;53.468;9.826;2023-11-21T08:36:30;4.30;;;3.90;;
44165;SDS011;30476;53.468;9.826;2023-11-21T08:38:56;8.70;;;4.53;;
44165;SDS011;30476;53.468;9.826;2023-11-21T08:41:23;3.63;;;3.40;;
44165;SDS011;30476;53.468;9.826;2023-11-21T08:43:51;3.53;;;3.20;;
44165;SDS011;30476;53.468;9.826;2023-11-21T08:46:19;3.27;;;3.07;;
44165;SDS011;30476;53.468;9.826;2023-11-21T08:48:44;3.10;;;2.90;;
44165;SDS011;30476;53.468;9.826;2023-11-21T08:51:11;4.50;;;2.80;;
44165;SDS011;30476;53.468;9.826;2023-11-21T08:53:37;3.07;;;2.80;;
44165;SDS011;30476;53.468;9.826;2023-11-21T08:56:03;2.47;;;2.23;;
44165;SDS011;30476;53.468;9.826;2023-11-21T08:58:30;2.90;;;2.43;;
44165;SDS011;30476;53.468;9.826;2023-11-21T09:00:57;2.73;;;2.53;;
44165;SDS011;30476;53.468;9.826;2023-11-21T09:03:23;3.63;;;3.33;;
44165;SDS011;30476;53.468;9.826;2023-11-21T09:05:50;3.50;;;2.67;;
44165;SDS011;30476;53.468;9.826;2023-11-21T09:08:16;3.03;;;2.43;;
44165;SDS011;30476;53.468;9.826;2023-11-21T09:10:42;2.93;;;2.67;;
44165;SDS011;30476;53.468;9.826;2023-11-21T09:13:10;2.30;;;2.20;;
44165;SDS011;30476;53.468;9.826;2023-11-21T09:15:36;8.33;;;2.93;;
44165;SDS011;30476;53.468;9.826;2023-11-21T09:18:02;2.13;;;2.03;;
44165;SDS011;30476;53.468;9.826;2023-11-21T09:20:28;2.23;;;2.03;;
44165;SDS011;30476;53.468;9.826;2023-11-21T09:22:54;5.53;;;2.93;;
44165;SDS011;30476;53.468;9.826;2023-11-21T09:25:20;2.40;;;2.20;;
44165;SDS011;30476;53.468;9.826;2023-11-21T09:27:46;2.80;;;2.60;;
44165;SDS011;30476;53.468;9.826;2023-11-21T09:30:12;3.90;;;1.93;;
44165;SDS011;30476;53.468;9.826;2023-11-21T09:32:39;2.83;;;2.10;;
44165;SDS011;30476;53.468;9.826;2023-11-21T09:35:05;2.30;;;2.20;;
44165;SDS011;30476;53.468;9.826;2023-11-21T09:37:33;2.50;;;2.30;;
44165;SDS011;30476;53.468;9.826;2023-11-21T09:40:01;3.97;;;3.70;;
44165;SDS011;30476;53.468;9.826;2023-11-21T09:42:32;2.20;;;2.10;;
44165;SDS011;30476;53.468;9.826;2023-11-21T09:47:38;3.70;;;1.50;;
44165;SDS011;30476;53.468;9.826;2023-11-21T09:50:04;2.63;;;1.53;;
44165;SDS011;30476;53.468;9.826;2023-11-21T09:52:33;1.70;;;1.60;;
44165;SDS011;30476;53.468;9.826;2023-11-21T09:55:22;1.80;;;1.70;;
44165;SDS011;30476;53.468;9.826;2023-11-21T09:57:52;1.93;;;1.77;;
44165;SDS011;30476;53.468;9.826;2023-11-21T10:00:21;1.20;;;1.10;;
44165;SDS011;30476;53.468;9.826;2023-11-21T10:02:49;1.57;;;1.30;;
44165;SDS011;30476;53.468;9.826;2023-11-21T10:05:16;1.73;;;1.30;;
44165;SDS011;30476;53.468;9.826;2023-11-21T10:07:45;2.93;;;1.43;;
44165;SDS011;30476;53.468;9.826;2023-11-21T10:10:12;2.10;;;2.00;;
44165;SDS011;30476;53.468;9.826;2023-11-21T10:12:42;2.37;;;1.40;;
44165;SDS011;30476;53.468;9.826;2023-11-21T10:15:10;1.67;;;1.50;;
44165;SDS011;30476;53.468;9.826;2023-11-21T10:17:41;2.83;;;1.80;;
44165;SDS011;30476;53.468;9.826;2023-11-21T10:20:11;2.67;;;2.47;;
44165;SDS011;30476;53.468;9.826;2023-11-21T10:22:39;2.00;;;1.90;;
44165;SDS011;30476;53.468;9.826;2023-11-21T10:25:09;2.00;;;1.80;;
44165;SDS011;30476;53.468;9.826;2023-11-21T10:27:36;1.70;;;1.60;;
44165;SDS011;30476;53.468;9.826;2023-11-21T10:30:04;2.70;;;1.93;;
44165;SDS011;30476;53.468;9.826;2023-11-21T10:32:37;1.43;;;1.30;;
44165;SDS011;30476;53.468;9.826;2023-11-21T10:35:09;1.57;;;1.40;;
44165;SDS011;30476;53.468;9.826;2023-11-21T10:37:39;2.37;;;1.70;;
44165;SDS011;30476;53.468;9.826;2023-11-21T10:40:08;2.23;;;1.13;;
44165;SDS011;30476;53.468;9.826;2023-11-21T10:42:38;2.30;;;1.63;;
44165;SDS011;30476;53.468;9.826;2023-11-21T10:45:04;1.77;;;1.00;;
44165;SDS011;30476;53.468;9.826;2023-11-21T10:47:39;1.23;;;1.20;;
44165;SDS011;30476;53.468;9.826;2023-11-21T10:50:07;2.23;;;1.50;;
44165;SDS011;30476;53.468;9.826;2023-11-21T10:52:45;2.27;;;1.30;;
44165;SDS011;30476;53.468;9.826;2023-11-21T10:55:16;1.20;;;1.10;;
44165;SDS011;30476;53.468;9.826;2023-11-21T10:57:44;1.20;;;1.10;;
44165;SDS011;30476;53.468;9.826;2023-11-21T11:00:16;1.53;;;1.37;;
44165;SDS011;30476;53.468;9.826;2023-11-21T11:02:46;2.23;;;1.67;;
44165;SDS011;30476;53.468;9.826;2023-11-21T11:05:19;1.50;;;1.40;;
44165;SDS011;30476;53.468;9.826;2023-11-21T11:07:47;1.97;;;1.80;;
44165;SDS011;30476;53.468;9.826;2023-11-21T11:10:19;1.50;;;1.40;;
44165;SDS011;30476;53.468;9.826;2023-11-21T11:12:48;2.63;;;2.13;;
44165;SDS011;30476;53.468;9.826;2023-11-21T11:15:15;1.40;;;1.30;;
44165;SDS011;30476;53.468;9.826;2023-11-21T11:17:41;1.80;;;1.70;;
44165;SDS011;30476;53.468;9.826;2023-11-21T11:20:11;1.40;;;1.30;;
44165;SDS011;30476;53.468;9.826;2023-11-21T11:28:10;2.70;;;1.80;;
44165;SDS011;30476;53.468;9.826;2023-11-21T11:30:53;1.70;;;1.60;;
44165;SDS011;30476;53.468;9.826;2023-11-21T11:33:59;2.00;;;1.50;;
44165;SDS011;30476;53.468;9.826;2023-11-21T11:36:49;2.20;;;1.50;;
44165;SDS011;30476;53.468;9.826;2023-11-21T11:39:30;2.20;;;2.10;;
44165;SDS011;30476;53.468;9.826;2023-11-21T11:41:57;5.67;;;1.63;;
44165;SDS011;30476;53.468;9.826;2023-11-21T11:47:14;1.60;;;1.50;;
44165;SDS011;30476;53.468;9.826;2023-11-21T11:55:17;1.30;;;1.20;;
44165;SDS011;30476;53.468;9.826;2023-11-21T11:57:44;1.27;;;1.17;;
44165;SDS011;30476;53.468;9.826;2023-11-21T12:02:53;2.30;;;1.50;;
44165;SDS011;30476;53.468;9.826;2023-11-21T12:05:22;1.70;;;1.60;;
44165;SDS011;30476;53.468;9.826;2023-11-21T12:07:52;2.30;;;1.37;;
44165;SDS011;30476;53.468;9.826;2023-11-21T12:10:28;1.17;;;1.17;;
44165;SDS011;30476;53.468;9.826;2023-11-21T12:12:55;1.30;;;1.20;;
44165;SDS011;30476;53.468;9.826;2023-11-21T12:15:26;1.60;;;1.13;;
44165;SDS011;30476;53.468;9.826;2023-11-21T12:17:55;2.37;;;2.17;;
44165;SDS011;30476;53.468;9.826;2023-11-21T12:20:22;1.20;;;1.10;;
44165;SDS011;30476;53.468;9.826;2023-11-21T12:22:50;1.70;;;1.60;;
44165;SDS011;30476;53.468;9.826;2023-11-21T12:25:17;2.57;;;1.50;;
44165;SDS011;30476;53.468;9.826;2023-11-21T12:27:47;1.60;;;1.50;;
44165;SDS011;30476;53.468;9.826;2023-11-21T12:30:15;1.20;;;1.10;;
44165;SDS011;30476;53.468;9.826;2023-11-21T12:32:48;1.23;;;1.23;;
44165;SDS011;30476;53.468;9.826;2023-11-21T12:35:17;1.47;;;1.37;;
44165;SDS011;30476;53.468;9.826;2023-11-21T12:37:45;1.70;;;1.60;;
44165;SDS011;30476;53.468;9.826;2023-11-21T12:40:12;2.20;;;1.97;;
44165;SDS011;30476;53.468;9.826;2023-11-21T12:42:41;1.83;;;1.57;;
44165;SDS011;30476;53.468;9.826;2023-11-21T12:45:08;1.40;;;1.30;;
44165;SDS011;30476;53.468;9.826;2023-11-21T12:47:46;1.30;;;1.20;;
44165;SDS011;30476;53.468;9.826;2023-11-21T12:50:14;1.40;;;1.30;;
44165;SDS011;30476;53.468;9.826;2023-11-21T12:52:44;1.13;;;1.10;;
44165;SDS011;30476;53.468;9.826;2023-11-21T12:55:13;0.97;;;0.97;;
44165;SDS011;30476;53.468;9.826;2023-11-21T12:57:51;1.20;;;1.10;;
44165;SDS011;30476;53.468;9.826;2023-11-21T13:00:20;1.37;;;1.27;;
44165;SDS011;30476;53.468;9.826;2023-11-21T13:02:54;1.30;;;1.10;;
44165;SDS011;30476;53.468;9.826;2023-11-21T13:05:24;1.97;;;1.77;;
44165;SDS011;30476;53.468;9.826;2023-11-21T13:07:54;1.83;;;1.30;;
44165;SDS011;30476;53.468;9.826;2023-11-21T13:10:26;3.37;;;1.33;;
44165;SDS011;30476;53.468;9.826;2023-11-21T13:12:59;1.87;;;1.77;;
44165;SDS011;30476;53.468;9.826;2023-11-21T13:15:26;2.80;;;1.50;;
44165;SDS011;30476;53.468;9.826;2023-11-21T13:17:53;1.40;;;1.30;;
44165;SDS011;30476;53.468;9.826;2023-11-21T13:20:19;2.77;;;1.13;;
44165;SDS011;30476;53.468;9.826;2023-11-21T13:22:49;1.83;;;1.10;;
44165;SDS011;30476;53.468;9.826;2023-11-21T13:25:19;1.63;;;1.53;;
44165;SDS011;30476;53.468;9.826;2023-11-21T13:27:49;1.57;;;1.17;;
44165;SDS011;30476;53.468;9.826;2023-11-21T13:30:16;1.57;;;1.47;;
44165;SDS011;30476;53.468;9.826;2023-11-21T13:32:45;1.60;;;1.50;;
44165;SDS011;30476;53.468;9.826;2023-11-21T13:35:12;1.30;;;1.20;;
44165;SDS011;30476;53.468;9.826;2023-11-21T13:37:51;1.67;;;1.57;;
44165;SDS011;30476;53.468;9.826;2023-11-21T13:40:21;1.37;;;1.27;;
44165;SDS011;30476;53.468;9.826;2023-11-21T13:42:51;1.83;;;1.17;;
44165;SDS011;30476;53.468;9.826;2023-11-21T13:45:19;0.90;;;0.90;;
44165;SDS011;30476;53.468;9.826;2023-11-21T13:47:48;1.50;;;1.40;;
44165;SDS011;30476;53.468;9.826;2023-11-21T13:50:16;1.50;;;1.40;;
44165;SDS011;30476;53.468;9.826;2023-11-21T13:52:47;1.60;;;1.50;;
44165;SDS011;30476;53.468;9.826;2023-11-21T13:55:14;1.60;;;1.37;;
44165;SDS011;30476;53.468;9.826;2023-11-21T13:57:40;1.77;;;1.20;;
44165;SDS011;30476;53.468;9.826;2023-11-21T14:00:13;1.10;;;1.00;;
44165;SDS011;30476;53.468;9.826;2023-11-21T14:02:59;9.80;;;1.13;;
44165;SDS011;30476;53.468;9.826;2023-11-21T14:05:29;3.33;;;1.50;;
44165;SDS011;30476;53.468;9.826;2023-11-21T14:07:57;1.47;;;1.33;;
44165;SDS011;30476;53.468;9.826;2023-11-21T14:10:29;1.57;;;1.13;;
44165;SDS011;30476;53.468;9.826;2023-11-21T14:13:05;2.10;;;1.50;;
44165;SDS011;30476;53.468;9.826;2023-11-21T14:15:32;1.30;;;1.10;;
44165;SDS011;30476;53.468;9.826;2023-11-21T14:18:09;1.70;;;1.37;;
44165;SDS011;30476;53.468;9.826;2023-11-21T14:20:36;0.90;;;0.90;;
44165;SDS011;30476;53.468;9.826;2023-11-21T14:23:03;1.20;;;1.10;;
44165;SDS011;30476;53.468;9.826;2023-11-21T14:25:31;1.37;;;1.27;;
44165;SDS011;30476;53.468;9.826;2023-11-21T14:27:58;1.77;;;1.67;;
44165;SDS011;30476;53.468;9.826;2023-11-21T14:30:24;1.43;;;1.17;;
44165;SDS011;30476;53.468;9.826;2023-11-21T14:32:51;1.03;;;0.93;;
44165;SDS011;30476;53.468;9.826;2023-11-21T14:35:17;1.17;;;1.07;;
44165;SDS011;30476;53.468;9.826;2023-11-21T14:37:43;2.30;;;1.20;;
44165;SDS011;30476;53.468;9.826;2023-11-21T14:40:10;1.60;;;1.23;;
44165;SDS011;30476;53.468;9.826;2023-11-21T14:42:36;1.23;;;1.13;;
44165;SDS011;30476;53.468;9.826;2023-11-21T14:45:04;2.00;;;1.63;;
44165;SDS011;30476;53.468;9.826;2023-11-21T14:47:32;1.10;;;1.10;;
44165;SDS011;30476;53.468;9.826;2023-11-21T14:50:00;0.93;;;0.93;;
44165;SDS011;30476;53.468;9.826;2023-11-21T14:52:44;5.03;;;1.53;;
44165;SDS011;30476;53.468;9.826;2023-11-21T14:55:20;1.37;;;1.27;;
44165;SDS011;30476;53.468;9.826;2023-11-21T14:57:57;2.43;;;1.43;;
44165;SDS011;30476;53.468;9.826;2023-11-21T15:00:28;1.23;;;1.17;;
44165;SDS011;30476;53.468;9.826;2023-11-21T15:03:00;2.03;;;1.10;;
44165;SDS011;30476;53.468;9.826;2023-11-21T15:05:27;1.10;;;1.07;;
44165;SDS011;30476;53.468;9.826;2023-11-21T15:07:53;0.97;;;0.93;;
44165;SDS011;30476;53.468;9.826;2023-11-21T15:10:22;1.40;;;1.30;;